Airfield :
LOGIN :

Register | Disclaimer

   EN    FR    IT 

 










Legend :    VFR   Marginal VFR   IFR   Intensive IFR   Very Intensive IFR
Visi :
Ceiling :
>= 8 km
>= 3000ft
5 to 8 km
1000 to 3000 ft
1500m to 5 km
500 to 1000 ft
800 to 1500m
200 to 500 ft
< 800m
< 200 ft
Symbols :   Thunderstorms  Fog  Heavy snow  Heavy precipitations  Wind > 20 kt
SIGMETs :     Misc.  Thunderstorms  Icing  Turbulence  Mountain Waves  Volcanic Ashes







- Airport Elevation : 83 ft
- IATA code : LHR
- Download approach charts


EGLL - London Heathrow

CURRENT METAR :
  • 251450Z AUTO 06004KT 020V080 5000 HZ FEW016 SCT023 OVC047 18/14 Q1020

EXPIRED METARs :
  • 251420Z AUTO VRB02KT 6000 FEW014 OVC044 18/14 Q1020 NOSIG
  • 251350Z 05004KT 010V080 6000 -RA BKN044 17/14 Q1020
  • 251320Z 04004KT 6000 -RA OVC041 17/14 Q1020
  • 251250Z AUTO 07005KT 7000 OVC041 17/14 Q1020
  • 251220Z AUTO 06004KT 010V090 7000 OVC044 17/14 Q1020

TAF TAF EGLL
Valid from the 25 at 12:00 until the 26 at 18:00 UTC


251052Z 2512/2618 06006KT 7000 SCT030
TEMPO 2512/2518 9999
BECMG 2517/2520 4000 BR
TEMPO 2603/2609 BKN004
PROB30
TEMPO 2603/2608 0500 FG BKN001
BECMG 2609/2612 9999 NSW
TEMPO 2609/2611 BKN009
No reported NOTAMs for that airfield.



MET'MAP, your aeronautical weather chart ! - Copyright ORBIFLY December 2007 - Disclaimer

ORBIFLY MET'MAP TEAM :

Programming & Development : Alexandra Zaïnal
Concept & Development : Baudouin d'Aumeries
Co-Development & Prog : Marc-Olivier Méhu
Technical & hardware support : Manuel Goepfert

Contact : metmap@orbifly.com




SOURCES & CREDITS :

   NOAA